sensor_id;sensor_type;location;lat;lon;timestamp;temperature;humidity
18147;DHT22;9199;48.832;9.182;2022-08-11T00:00:58;18.00;65.00
18147;DHT22;9199;48.832;9.182;2022-08-11T00:03:26;18.00;66.20
18147;DHT22;9199;48.832;9.182;2022-08-11T00:05:55;18.00;66.60
18147;DHT22;9199;48.832;9.182;2022-08-11T00:08:24;17.90;66.90
18147;DHT22;9199;48.832;9.182;2022-08-11T00:10:52;17.90;67.00
18147;DHT22;9199;48.832;9.182;2022-08-11T00:13:21;17.90;67.20
18147;DHT22;9199;48.832;9.182;2022-08-11T00:15:49;17.90;66.80
18147;DHT22;9199;48.832;9.182;2022-08-11T00:18:17;17.90;66.70
18147;DHT22;9199;48.832;9.182;2022-08-11T00:20:44;17.90;66.20
18147;DHT22;9199;48.832;9.182;2022-08-11T00:23:14;17.90;66.00
18147;DHT22;9199;48.832;9.182;2022-08-11T00:25:45;17.90;66.60
18147;DHT22;9199;48.832;9.182;2022-08-11T00:28:26;17.90;68.40
18147;DHT22;9199;48.832;9.182;2022-08-11T00:30:55;17.70;69.40
18147;DHT22;9199;48.832;9.182;2022-08-11T00:33:29;17.70;70.20
18147;DHT22;9199;48.832;9.182;2022-08-11T00:35:58;17.60;70.10
18147;DHT22;9199;48.832;9.182;2022-08-11T00:38:30;17.70;69.80
18147;DHT22;9199;48.832;9.182;2022-08-11T00:41:03;17.60;70.50
18147;DHT22;9199;48.832;9.182;2022-08-11T00:43:49;17.50;71.20
18147;DHT22;9199;48.832;9.182;2022-08-11T00:46:26;17.50;71.90
18147;DHT22;9199;48.832;9.182;2022-08-11T00:49:07;17.50;71.80
18147;DHT22;9199;48.832;9.182;2022-08-11T00:51:46;17.50;71.60
18147;DHT22;9199;48.832;9.182;2022-08-11T00:54:30;17.50;71.90
18147;DHT22;9199;48.832;9.182;2022-08-11T00:57:28;17.50;71.40
18147;DHT22;9199;48.832;9.182;2022-08-11T01:00:12;17.50;71.80
18147;DHT22;9199;48.832;9.182;2022-08-11T01:02:50;17.40;72.00
18147;DHT22;9199;48.832;9.182;2022-08-11T01:05:37;17.40;71.00
18147;DHT22;9199;48.832;9.182;2022-08-11T01:08:35;17.40;72.10
18147;DHT22;9199;48.832;9.182;2022-08-11T01:11:28;17.40;72.60
18147;DHT22;9199;48.832;9.182;2022-08-11T01:17:44;17.30;73.20
18147;DHT22;9199;48.832;9.182;2022-08-11T01:20:41;17.20;73.80
18147;DHT22;9199;48.832;9.182;2022-08-11T01:23:59;17.20;75.50
18147;DHT22;9199;48.832;9.182;2022-08-11T01:30:33;17.10;75.90
18147;DHT22;9199;48.832;9.182;2022-08-11T01:36:49;17.00;77.50
18147;DHT22;9199;48.832;9.182;2022-08-11T01:39:43;17.00;78.40
18147;DHT22;9199;48.832;9.182;2022-08-11T01:43:02;16.90;79.20
18147;DHT22;9199;48.832;9.182;2022-08-11T01:45:54;16.90;81.00
18147;DHT22;9199;48.832;9.182;2022-08-11T01:48:33;16.80;82.10
18147;DHT22;9199;48.832;9.182;2022-08-11T01:51:10;16.70;83.50
18147;DHT22;9199;48.832;9.182;2022-08-11T01:53:50;16.60;83.70
18147;DHT22;9199;48.832;9.182;2022-08-11T01:56:45;16.60;84.20
18147;DHT22;9199;48.832;9.182;2022-08-11T01:59:17;16.60;84.90
18147;DHT22;9199;48.832;9.182;2022-08-11T02:02:25;16.60;86.10
18147;DHT22;9199;48.832;9.182;2022-08-11T02:05:19;16.60;86.90
18147;DHT22;9199;48.832;9.182;2022-08-11T02:07:57;16.50;88.00
18147;DHT22;9199;48.832;9.182;2022-08-11T02:10:37;16.40;89.90
18147;DHT22;9199;48.832;9.182;2022-08-11T02:13:35;16.30;90.80
18147;DHT22;9199;48.832;9.182;2022-08-11T02:16:18;16.20;90.00
18147;DHT22;9199;48.832;9.182;2022-08-11T02:18:52;16.20;90.10
18147;DHT22;9199;48.832;9.182;2022-08-11T02:21:44;16.60;87.70
18147;DHT22;9199;48.832;9.182;2022-08-11T02:24:34;16.70;87.70
18147;DHT22;9199;48.832;9.182;2022-08-11T02:27:06;16.60;90.30
18147;DHT22;9199;48.832;9.182;2022-08-11T02:29:40;16.40;91.00
18147;DHT22;9199;48.832;9.182;2022-08-11T02:32:17;16.30;91.40
18147;DHT22;9199;48.832;9.182;2022-08-11T02:35:10;16.10;91.90
18147;DHT22;9199;48.832;9.182;2022-08-11T02:37:47;16.10;92.60
18147;DHT22;9199;48.832;9.182;2022-08-11T02:40:21;16.10;92.00
18147;DHT22;9199;48.832;9.182;2022-08-11T02:43:04;16.20;91.50
18147;DHT22;9199;48.832;9.182;2022-08-11T02:45:41;16.20;92.50
18147;DHT22;9199;48.832;9.182;2022-08-11T02:48:19;16.10;93.50
18147;DHT22;9199;48.832;9.182;2022-08-11T02:51:13;16.00;94.00
18147;DHT22;9199;48.832;9.182;2022-08-11T02:53:48;15.90;94.40
18147;DHT22;9199;48.832;9.182;2022-08-11T02:56:31;15.90;94.50
18147;DHT22;9199;48.832;9.182;2022-08-11T02:59:07;15.80;95.10
18147;DHT22;9199;48.832;9.182;2022-08-11T03:02:01;15.90;95.80
18147;DHT22;9199;48.832;9.182;2022-08-11T03:04:35;15.90;95.80
18147;DHT22;9199;48.832;9.182;2022-08-11T03:07:11;15.90;95.90
18147;DHT22;9199;48.832;9.182;2022-08-11T03:09:54;15.80;96.60
18147;DHT22;9199;48.832;9.182;2022-08-11T03:12:29;15.80;97.20
18147;DHT22;9199;48.832;9.182;2022-08-11T03:15:23;15.80;97.20
18147;DHT22;9199;48.832;9.182;2022-08-11T03:18:17;15.70;97.70
18147;DHT22;9199;48.832;9.182;2022-08-11T03:20:56;15.60;98.20
18147;DHT22;9199;48.832;9.182;2022-08-11T03:23:38;15.60;98.50
18147;DHT22;9199;48.832;9.182;2022-08-11T03:26:14;15.60;98.80
18147;DHT22;9199;48.832;9.182;2022-08-11T03:28:46;15.60;99.60
18147;DHT22;9199;48.832;9.182;2022-08-11T03:31:23;15.60;99.70
18147;DHT22;9199;48.832;9.182;2022-08-11T03:33:57;15.50;99.90
18147;DHT22;9199;48.832;9.182;2022-08-11T03:37:04;15.50;99.90
18147;DHT22;9199;48.832;9.182;2022-08-11T03:39:41;15.50;99.90
18147;DHT22;9199;48.832;9.182;2022-08-11T03:42:17;15.50;99.90
18147;DHT22;9199;48.832;9.182;2022-08-11T03:45:06;15.50;99.90
18147;DHT22;9199;48.832;9.182;2022-08-11T03:47:59;15.50;99.90
18147;DHT22;9199;48.832;9.182;2022-08-11T03:50:56;15.60;99.80
18147;DHT22;9199;48.832;9.182;2022-08-11T03:53:40;15.60;99.50
18147;DHT22;9199;48.832;9.182;2022-08-11T03:59:48;15.70;99.30
18147;DHT22;9199;48.832;9.182;2022-08-11T04:02:32;15.60;99.90
18147;DHT22;9199;48.832;9.182;2022-08-11T04:05:30;15.80;99.30
18147;DHT22;9199;48.832;9.182;2022-08-11T04:11:30;15.80;99.30
18147;DHT22;9199;48.832;9.182;2022-08-11T04:14:34;15.70;99.60
18147;DHT22;9199;48.832;9.182;2022-08-11T04:20:48;15.60;99.90
18147;DHT22;9199;48.832;9.182;2022-08-11T04:23:47;15.90;99.90
18147;DHT22;9199;48.832;9.182;2022-08-11T04:26:47;16.00;99.90
18147;DHT22;9199;48.832;9.182;2022-08-11T04:29:31;16.20;99.90
18147;DHT22;9199;48.832;9.182;2022-08-11T04:32:13;16.30;99.90
18147;DHT22;9199;48.832;9.182;2022-08-11T04:35:11;16.30;99.80
18147;DHT22;9199;48.832;9.182;2022-08-11T04:38:02;16.30;99.50
18147;DHT22;9199;48.832;9.182;2022-08-11T04:44:26;16.40;99.50
18147;DHT22;9199;48.832;9.182;2022-08-11T04:47:13;16.40;98.90
18147;DHT22;9199;48.832;9.182;2022-08-11T04:50:18;16.40;99.10
18147;DHT22;9199;48.832;9.182;2022-08-11T04:53:15;16.30;99.30
18147;DHT22;9199;48.832;9.182;2022-08-11T04:56:09;16.30;99.90
18147;DHT22;9199;48.832;9.182;2022-08-11T04:59:14;16.20;99.90
18147;DHT22;9199;48.832;9.182;2022-08-11T05:02:42;16.20;99.90
18147;DHT22;9199;48.832;9.182;2022-08-11T05:05:24;16.50;99.90
18147;DHT22;9199;48.832;9.182;2022-08-11T05:11:06;16.60;99.90
18147;DHT22;9199;48.832;9.182;2022-08-11T05:13:44;17.00;98.10
18147;DHT22;9199;48.832;9.182;2022-08-11T05:16:31;17.10;98.00
18147;DHT22;9199;48.832;9.182;2022-08-11T05:19:18;17.30;97.60
18147;DHT22;9199;48.832;9.182;2022-08-11T05:22:06;17.40;96.70
18147;DHT22;9199;48.832;9.182;2022-08-11T05:24:57;17.70;95.90
18147;DHT22;9199;48.832;9.182;2022-08-11T05:28:00;18.00;94.90
18147;DHT22;9199;48.832;9.182;2022-08-11T05:30:47;18.10;93.60
18147;DHT22;9199;48.832;9.182;2022-08-11T05:33:36;18.10;93.20
18147;DHT22;9199;48.832;9.182;2022-08-11T05:36:27;18.10;93.50
18147;DHT22;9199;48.832;9.182;2022-08-11T05:38:57;18.20;92.90
18147;DHT22;9199;48.832;9.182;2022-08-11T05:41:42;18.30;92.70
18147;DHT22;9199;48.832;9.182;2022-08-11T05:44:29;18.50;92.70
18147;DHT22;9199;48.832;9.182;2022-08-11T05:47:21;18.60;91.60
18147;DHT22;9199;48.832;9.182;2022-08-11T05:50:09;18.80;91.40
18147;DHT22;9199;48.832;9.182;2022-08-11T05:52:54;18.90;90.90
18147;DHT22;9199;48.832;9.182;2022-08-11T05:55:40;19.10;90.20
18147;DHT22;9199;48.832;9.182;2022-08-11T05:58:26;19.30;88.70
18147;DHT22;9199;48.832;9.182;2022-08-11T06:00:59;19.50;88.40
18147;DHT22;9199;48.832;9.182;2022-08-11T06:03:28;19.60;87.50
18147;DHT22;9199;48.832;9.182;2022-08-11T06:05:57;19.70;87.60
18147;DHT22;9199;48.832;9.182;2022-08-11T06:08:29;19.80;89.20
18147;DHT22;9199;48.832;9.182;2022-08-11T06:11:00;20.00;87.30
18147;DHT22;9199;48.832;9.182;2022-08-11T06:13:29;20.20;86.10
18147;DHT22;9199;48.832;9.182;2022-08-11T06:15:59;20.40;86.00
18147;DHT22;9199;48.832;9.182;2022-08-11T06:18:27;20.60;85.50
18147;DHT22;9199;48.832;9.182;2022-08-11T06:20:56;20.80;85.00
18147;DHT22;9199;48.832;9.182;2022-08-11T06:23:31;20.90;82.50
18147;DHT22;9199;48.832;9.182;2022-08-11T06:25:59;21.10;80.30
18147;DHT22;9199;48.832;9.182;2022-08-11T06:28:31;21.30;79.40
18147;DHT22;9199;48.832;9.182;2022-08-11T06:31:01;21.50;79.40
18147;DHT22;9199;48.832;9.182;2022-08-11T06:33:32;21.60;77.70
18147;DHT22;9199;48.832;9.182;2022-08-11T06:36:03;21.80;78.30
18147;DHT22;9199;48.832;9.182;2022-08-11T06:38:52;22.00;76.90
18147;DHT22;9199;48.832;9.182;2022-08-11T06:41:26;22.20;74.90
18147;DHT22;9199;48.832;9.182;2022-08-11T06:44:01;22.30;76.10
18147;DHT22;9199;48.832;9.182;2022-08-11T06:46:34;22.50;74.10
18147;DHT22;9199;48.832;9.182;2022-08-11T06:49:03;22.70;72.10
18147;DHT22;9199;48.832;9.182;2022-08-11T06:51:30;22.80;71.60
18147;DHT22;9199;48.832;9.182;2022-08-11T06:54:00;22.90;70.90
18147;DHT22;9199;48.832;9.182;2022-08-11T06:56:30;23.00;71.40
18147;DHT22;9199;48.832;9.182;2022-08-11T06:59:16;23.20;69.00
18147;DHT22;9199;48.832;9.182;2022-08-11T07:02:06;23.30;70.40
18147;DHT22;9199;48.832;9.182;2022-08-11T07:04:40;23.50;68.80
18147;DHT22;9199;48.832;9.182;2022-08-11T07:07:53;23.50;66.80
18147;DHT22;9199;48.832;9.182;2022-08-11T07:10:49;23.70;65.70
18147;DHT22;9199;48.832;9.182;2022-08-11T07:13:38;23.90;67.40
18147;DHT22;9199;48.832;9.182;2022-08-11T07:16:26;24.10;65.60
18147;DHT22;9199;48.832;9.182;2022-08-11T07:19:01;24.20;65.40
18147;DHT22;9199;48.832;9.182;2022-08-11T07:21:46;24.40;66.70
18147;DHT22;9199;48.832;9.182;2022-08-11T07:24:35;24.60;65.60
18147;DHT22;9199;48.832;9.182;2022-08-11T07:27:21;24.80;63.60
18147;DHT22;9199;48.832;9.182;2022-08-11T07:30:09;24.90;62.60
18147;DHT22;9199;48.832;9.182;2022-08-11T07:32:44;25.10;64.40
18147;DHT22;9199;48.832;9.182;2022-08-11T07:35:19;25.10;64.40
18147;DHT22;9199;48.832;9.182;2022-08-11T07:37:50;25.30;63.20
18147;DHT22;9199;48.832;9.182;2022-08-11T07:40:20;25.40;59.80
18147;DHT22;9199;48.832;9.182;2022-08-11T07:42:49;25.40;59.30
18147;DHT22;9199;48.832;9.182;2022-08-11T07:45:16;25.60;60.80
18147;DHT22;9199;48.832;9.182;2022-08-11T07:48:01;25.60;59.20
18147;DHT22;9199;48.832;9.182;2022-08-11T07:50:47;25.70;59.50
18147;DHT22;9199;48.832;9.182;2022-08-11T07:53:33;25.80;58.50
18147;DHT22;9199;48.832;9.182;2022-08-11T07:56:03;26.00;58.30
18147;DHT22;9199;48.832;9.182;2022-08-11T07:58:33;26.00;57.60
18147;DHT22;9199;48.832;9.182;2022-08-11T08:01:19;26.20;57.00
18147;DHT22;9199;48.832;9.182;2022-08-11T08:04:06;26.40;57.70
18147;DHT22;9199;48.832;9.182;2022-08-11T08:06:53;26.60;56.50
18147;DHT22;9199;48.832;9.182;2022-08-11T08:09:38;26.60;57.00
18147;DHT22;9199;48.832;9.182;2022-08-11T08:12:24;26.90;56.10
18147;DHT22;9199;48.832;9.182;2022-08-11T08:15:10;27.30;55.40
18147;DHT22;9199;48.832;9.182;2022-08-11T08:17:57;27.40;54.30
18147;DHT22;9199;48.832;9.182;2022-08-11T08:20:25;27.60;53.60
18147;DHT22;9199;48.832;9.182;2022-08-11T08:22:56;27.90;53.80
18147;DHT22;9199;48.832;9.182;2022-08-11T08:25:24;28.10;54.20
18147;DHT22;9199;48.832;9.182;2022-08-11T08:27:53;28.10;51.70
18147;DHT22;9199;48.832;9.182;2022-08-11T08:30:21;28.00;52.10
18147;DHT22;9199;48.832;9.182;2022-08-11T08:33:06;28.10;52.40
18147;DHT22;9199;48.832;9.182;2022-08-11T08:35:35;28.30;50.60
18147;DHT22;9199;48.832;9.182;2022-08-11T08:38:04;28.40;51.90
18147;DHT22;9199;48.832;9.182;2022-08-11T08:40:31;28.60;50.30
18147;DHT22;9199;48.832;9.182;2022-08-11T08:43:02;29.00;49.60
18147;DHT22;9199;48.832;9.182;2022-08-11T08:45:32;29.20;48.20
18147;DHT22;9199;48.832;9.182;2022-08-11T08:48:02;29.30;48.90
18147;DHT22;9199;48.832;9.182;2022-08-11T08:50:32;29.50;47.20
18147;DHT22;9199;48.832;9.182;2022-08-11T08:53:21;29.50;47.00
18147;DHT22;9199;48.832;9.182;2022-08-11T08:55:49;29.40;45.90
18147;DHT22;9199;48.832;9.182;2022-08-11T08:58:19;29.30;45.50
18147;DHT22;9199;48.832;9.182;2022-08-11T09:00:50;29.40;44.70
18147;DHT22;9199;48.832;9.182;2022-08-11T09:03:17;29.60;44.50
18147;DHT22;9199;48.832;9.182;2022-08-11T09:05:46;29.70;43.60
18147;DHT22;9199;48.832;9.182;2022-08-11T09:08:13;29.40;42.80
18147;DHT22;9199;48.832;9.182;2022-08-11T09:10:45;29.10;44.70
18147;DHT22;9199;48.832;9.182;2022-08-11T09:13:13;29.20;44.70
18147;DHT22;9199;48.832;9.182;2022-08-11T09:15:41;29.40;43.50
18147;DHT22;9199;48.832;9.182;2022-08-11T09:18:08;29.50;43.10
18147;DHT22;9199;48.832;9.182;2022-08-11T09:20:36;29.60;42.90
18147;DHT22;9199;48.832;9.182;2022-08-11T09:23:05;29.60;41.30
18147;DHT22;9199;48.832;9.182;2022-08-11T09:25:55;29.70;41.40
18147;DHT22;9199;48.832;9.182;2022-08-11T09:28:41;29.70;41.10
18147;DHT22;9199;48.832;9.182;2022-08-11T09:31:09;30.00;40.40
18147;DHT22;9199;48.832;9.182;2022-08-11T09:33:38;29.90;40.20
18147;DHT22;9199;48.832;9.182;2022-08-11T09:36:06;30.00;39.60
18147;DHT22;9199;48.832;9.182;2022-08-11T09:38:48;30.30;39.60
18147;DHT22;9199;48.832;9.182;2022-08-11T09:41:35;30.40;38.40
18147;DHT22;9199;48.832;9.182;2022-08-11T09:44:02;30.60;38.40
18147;DHT22;9199;48.832;9.182;2022-08-11T09:46:48;30.90;37.70
18147;DHT22;9199;48.832;9.182;2022-08-11T09:49:18;30.80;37.60
18147;DHT22;9199;48.832;9.182;2022-08-11T09:51:47;30.60;37.80
18147;DHT22;9199;48.832;9.182;2022-08-11T09:54:16;30.60;38.60
18147;DHT22;9199;48.832;9.182;2022-08-11T09:56:45;30.90;39.00
18147;DHT22;9199;48.832;9.182;2022-08-11T09:59:29;31.40;37.00
18147;DHT22;9199;48.832;9.182;2022-08-11T10:01:59;32.70;36.20
18147;DHT22;9199;48.832;9.182;2022-08-11T10:04:32;34.00;34.40
18147;DHT22;9199;48.832;9.182;2022-08-11T10:07:02;35.40;32.50
18147;DHT22;9199;48.832;9.182;2022-08-11T10:09:38;36.10;30.00
18147;DHT22;9199;48.832;9.182;2022-08-11T10:12:10;36.70;28.90
18147;DHT22;9199;48.832;9.182;2022-08-11T10:14:43;37.40;28.50
18147;DHT22;9199;48.832;9.182;2022-08-11T10:17:31;37.60;28.00
18147;DHT22;9199;48.832;9.182;2022-08-11T10:19:59;37.00;27.80
18147;DHT22;9199;48.832;9.182;2022-08-11T10:22:29;37.00;28.20
18147;DHT22;9199;48.832;9.182;2022-08-11T10:25:15;36.90;28.30
18147;DHT22;9199;48.832;9.182;2022-08-11T10:28:02;38.10;27.30
18147;DHT22;9199;48.832;9.182;2022-08-11T10:30:30;38.80;26.10
18147;DHT22;9199;48.832;9.182;2022-08-11T10:33:16;38.30;25.80
18147;DHT22;9199;48.832;9.182;2022-08-11T10:36:02;38.40;25.50
18147;DHT22;9199;48.832;9.182;2022-08-11T10:38:30;38.90;25.50
18147;DHT22;9199;48.832;9.182;2022-08-11T10:40:58;39.10;24.90
18147;DHT22;9199;48.832;9.182;2022-08-11T10:43:45;39.50;25.00
18147;DHT22;9199;48.832;9.182;2022-08-11T10:46:12;39.80;24.70
18147;DHT22;9199;48.832;9.182;2022-08-11T10:48:58;40.10;24.90
18147;DHT22;9199;48.832;9.182;2022-08-11T10:51:26;39.70;24.20
18147;DHT22;9199;48.832;9.182;2022-08-11T10:54:12;39.40;24.30
18147;DHT22;9199;48.832;9.182;2022-08-11T10:56:59;39.50;24.30
18147;DHT22;9199;48.832;9.182;2022-08-11T10:59:46;40.40;23.30
18147;DHT22;9199;48.832;9.182;2022-08-11T11:02:14;41.30;23.50
18147;DHT22;9199;48.832;9.182;2022-08-11T11:04:56;41.20;23.80
18147;DHT22;9199;48.832;9.182;2022-08-11T11:07:35;41.00;23.90
18147;DHT22;9199;48.832;9.182;2022-08-11T11:10:04;40.80;23.90
18147;DHT22;9199;48.832;9.182;2022-08-11T11:12:37;41.10;24.30
18147;DHT22;9199;48.832;9.182;2022-08-11T11:15:25;41.60;23.20
18147;DHT22;9199;48.832;9.182;2022-08-11T11:18:17;42.00;22.90
18147;DHT22;9199;48.832;9.182;2022-08-11T11:20:48;41.90;23.30
18147;DHT22;9199;48.832;9.182;2022-08-11T11:23:18;42.60;22.70
18147;DHT22;9199;48.832;9.182;2022-08-11T11:25:57;43.00;22.20
18147;DHT22;9199;48.832;9.182;2022-08-11T11:28:44;43.20;22.00
18147;DHT22;9199;48.832;9.182;2022-08-11T11:31:25;43.60;22.30
18147;DHT22;9199;48.832;9.182;2022-08-11T11:34:14;44.00;21.30
18147;DHT22;9199;48.832;9.182;2022-08-11T11:36:46;44.30;21.60
18147;DHT22;9199;48.832;9.182;2022-08-11T11:39:17;44.40;21.10
18147;DHT22;9199;48.832;9.182;2022-08-11T11:41:44;44.30;21.50
18147;DHT22;9199;48.832;9.182;2022-08-11T11:44:12;44.50;21.20
18147;DHT22;9199;48.832;9.182;2022-08-11T11:46:41;44.80;21.40
18147;DHT22;9199;48.832;9.182;2022-08-11T11:49:11;44.90;20.70
18147;DHT22;9199;48.832;9.182;2022-08-11T11:51:40;44.60;21.30
18147;DHT22;9199;48.832;9.182;2022-08-11T11:54:08;44.40;21.10
18147;DHT22;9199;48.832;9.182;2022-08-11T11:56:36;44.10;21.00
18147;DHT22;9199;48.832;9.182;2022-08-11T11:59:04;42.70;22.00
18147;DHT22;9199;48.832;9.182;2022-08-11T12:01:50;41.90;21.60
18147;DHT22;9199;48.832;9.182;2022-08-11T12:04:19;42.50;21.60
18147;DHT22;9199;48.832;9.182;2022-08-11T12:06:47;43.30;21.70
18147;DHT22;9199;48.832;9.182;2022-08-11T12:09:14;43.80;21.50
18147;DHT22;9199;48.832;9.182;2022-08-11T12:11:48;43.90;21.30
18147;DHT22;9199;48.832;9.182;2022-08-11T12:14:29;43.90;20.70
18147;DHT22;9199;48.832;9.182;2022-08-11T12:16:58;43.90;21.10
18147;DHT22;9199;48.832;9.182;2022-08-11T12:19:26;43.70;21.20
18147;DHT22;9199;48.832;9.182;2022-08-11T12:21:55;43.90;21.00
18147;DHT22;9199;48.832;9.182;2022-08-11T12:24:40;44.10;21.00
18147;DHT22;9199;48.832;9.182;2022-08-11T12:27:26;43.80;20.90
18147;DHT22;9199;48.832;9.182;2022-08-11T12:29:55;43.50;20.40
18147;DHT22;9199;48.832;9.182;2022-08-11T12:32:31;42.80;21.10
18147;DHT22;9199;48.832;9.182;2022-08-11T12:34:58;43.10;21.60
18147;DHT22;9199;48.832;9.182;2022-08-11T12:37:29;43.80;21.40
18147;DHT22;9199;48.832;9.182;2022-08-11T12:40:00;44.40;20.60
18147;DHT22;9199;48.832;9.182;2022-08-11T12:42:46;44.40;20.50
18147;DHT22;9199;48.832;9.182;2022-08-11T12:45:31;44.30;20.00
18147;DHT22;9199;48.832;9.182;2022-08-11T12:48:09;45.00;20.20
18147;DHT22;9199;48.832;9.182;2022-08-11T12:50:56;45.30;19.90
18147;DHT22;9199;48.832;9.182;2022-08-11T12:53:51;45.00;19.80
18147;DHT22;9199;48.832;9.182;2022-08-11T12:56:18;44.90;20.00
18147;DHT22;9199;48.832;9.182;2022-08-11T12:59:04;45.10;19.90
18147;DHT22;9199;48.832;9.182;2022-08-11T13:01:50;45.30;19.50
18147;DHT22;9199;48.832;9.182;2022-08-11T13:04:36;45.70;19.50
18147;DHT22;9199;48.832;9.182;2022-08-11T13:07:24;45.70;18.90
18147;DHT22;9199;48.832;9.182;2022-08-11T13:09:52;44.80;19.10
18147;DHT22;9199;48.832;9.182;2022-08-11T13:12:22;44.60;19.10
18147;DHT22;9199;48.832;9.182;2022-08-11T13:15:08;44.50;20.00
18147;DHT22;9199;48.832;9.182;2022-08-11T13:17:36;43.70;19.00
18147;DHT22;9199;48.832;9.182;2022-08-11T13:20:06;43.00;19.70
18147;DHT22;9199;48.832;9.182;2022-08-11T13:22:35;41.60;20.00
18147;DHT22;9199;48.832;9.182;2022-08-11T13:25:03;41.60;20.70
18147;DHT22;9199;48.832;9.182;2022-08-11T13:27:31;42.80;20.70
18147;DHT22;9199;48.832;9.182;2022-08-11T13:29:58;43.50;19.70
18147;DHT22;9199;48.832;9.182;2022-08-11T13:32:44;44.00;19.80
18147;DHT22;9199;48.832;9.182;2022-08-11T13:35:13;44.30;19.20
18147;DHT22;9199;48.832;9.182;2022-08-11T13:37:43;44.30;19.20
18147;DHT22;9199;48.832;9.182;2022-08-11T13:40:12;44.30;19.10
18147;DHT22;9199;48.832;9.182;2022-08-11T13:42:39;44.50;19.00
18147;DHT22;9199;48.832;9.182;2022-08-11T13:45:07;44.80;18.80
18147;DHT22;9199;48.832;9.182;2022-08-11T13:47:36;45.10;18.50
18147;DHT22;9199;48.832;9.182;2022-08-11T13:50:04;44.50;18.50
18147;DHT22;9199;48.832;9.182;2022-08-11T13:52:34;44.20;18.60
18147;DHT22;9199;48.832;9.182;2022-08-11T13:55:05;44.10;19.10
18147;DHT22;9199;48.832;9.182;2022-08-11T13:57:32;44.60;18.60
18147;DHT22;9199;48.832;9.182;2022-08-11T14:00:00;44.70;18.70
18147;DHT22;9199;48.832;9.182;2022-08-11T14:02:37;44.80;18.40
18147;DHT22;9199;48.832;9.182;2022-08-11T14:05:07;45.20;18.30
18147;DHT22;9199;48.832;9.182;2022-08-11T14:07:38;45.20;18.30
18147;DHT22;9199;48.832;9.182;2022-08-11T14:10:08;44.70;18.70
18147;DHT22;9199;48.832;9.182;2022-08-11T14:12:40;44.70;18.10
18147;DHT22;9199;48.832;9.182;2022-08-11T14:15:30;44.90;18.30
18147;DHT22;9199;48.832;9.182;2022-08-11T14:18:02;44.60;18.50
18147;DHT22;9199;48.832;9.182;2022-08-11T14:20:31;44.00;18.20
18147;DHT22;9199;48.832;9.182;2022-08-11T14:23:23;43.50;18.60
18147;DHT22;9199;48.832;9.182;2022-08-11T14:25:51;43.50;18.80
18147;DHT22;9199;48.832;9.182;2022-08-11T14:28:36;43.10;18.70
18147;DHT22;9199;48.832;9.182;2022-08-11T14:31:03;43.20;18.60
18147;DHT22;9199;48.832;9.182;2022-08-11T14:33:33;43.60;18.30
18147;DHT22;9199;48.832;9.182;2022-08-11T14:36:02;43.10;18.30
18147;DHT22;9199;48.832;9.182;2022-08-11T14:38:32;43.50;18.40
18147;DHT22;9199;48.832;9.182;2022-08-11T14:41:00;43.80;18.20
18147;DHT22;9199;48.832;9.182;2022-08-11T14:43:45;44.10;18.50
18147;DHT22;9199;48.832;9.182;2022-08-11T14:46:30;44.10;18.60
18147;DHT22;9199;48.832;9.182;2022-08-11T14:49:15;44.00;18.50
18147;DHT22;9199;48.832;9.182;2022-08-11T14:51:43;42.70;18.50
18147;DHT22;9199;48.832;9.182;2022-08-11T14:54:12;42.40;19.30
18147;DHT22;9199;48.832;9.182;2022-08-11T14:56:57;42.60;19.20
18147;DHT22;9199;48.832;9.182;2022-08-11T14:59:24;42.60;18.90
18147;DHT22;9199;48.832;9.182;2022-08-11T15:01:51;42.10;19.10
18147;DHT22;9199;48.832;9.182;2022-08-11T15:04:37;43.00;18.80
18147;DHT22;9199;48.832;9.182;2022-08-11T15:07:04;43.10;18.90
18147;DHT22;9199;48.832;9.182;2022-08-11T15:09:33;43.20;18.80
18147;DHT22;9199;48.832;9.182;2022-08-11T15:12:00;42.70;18.90
18147;DHT22;9199;48.832;9.182;2022-08-11T15:14:42;42.50;19.10
18147;DHT22;9199;48.832;9.182;2022-08-11T15:17:28;41.90;19.10
18147;DHT22;9199;48.832;9.182;2022-08-11T15:19:59;42.00;19.60
18147;DHT22;9199;48.832;9.182;2022-08-11T15:22:45;42.00;19.90
18147;DHT22;9199;48.832;9.182;2022-08-11T15:25:31;41.80;19.50
18147;DHT22;9199;48.832;9.182;2022-08-11T15:28:01;42.10;19.00
18147;DHT22;9199;48.832;9.182;2022-08-11T15:30:51;41.60;19.20
18147;DHT22;9199;48.832;9.182;2022-08-11T15:33:38;42.00;19.10
18147;DHT22;9199;48.832;9.182;2022-08-11T15:36:25;41.50;19.10
18147;DHT22;9199;48.832;9.182;2022-08-11T15:39:15;41.40;19.30
18147;DHT22;9199;48.832;9.182;2022-08-11T15:41:48;41.50;19.20
18147;DHT22;9199;48.832;9.182;2022-08-11T15:44:36;41.90;19.30
18147;DHT22;9199;48.832;9.182;2022-08-11T15:47:27;41.80;19.30
18147;DHT22;9199;48.832;9.182;2022-08-11T15:49:57;41.40;19.40
18147;DHT22;9199;48.832;9.182;2022-08-11T15:52:30;40.90;19.70
18147;DHT22;9199;48.832;9.182;2022-08-11T15:54:58;40.90;19.60
18147;DHT22;9199;48.832;9.182;2022-08-11T15:57:29;40.90;19.70
18147;DHT22;9199;48.832;9.182;2022-08-11T16:00:14;40.90;20.10
18147;DHT22;9199;48.832;9.182;2022-08-11T16:03:00;39.90;20.20
18147;DHT22;9199;48.832;9.182;2022-08-11T16:05:43;39.50;20.80
18147;DHT22;9199;48.832;9.182;2022-08-11T16:08:11;39.10;20.90
18147;DHT22;9199;48.832;9.182;2022-08-11T16:10:41;38.10;21.60
18147;DHT22;9199;48.832;9.182;2022-08-11T16:13:11;36.70;22.60
18147;DHT22;9199;48.832;9.182;2022-08-11T16:15:56;35.40;23.30
18147;DHT22;9199;48.832;9.182;2022-08-11T16:18:42;34.30;24.50
18147;DHT22;9199;48.832;9.182;2022-08-11T16:21:13;33.50;24.60
18147;DHT22;9199;48.832;9.182;2022-08-11T16:23:46;33.00;25.20
18147;DHT22;9199;48.832;9.182;2022-08-11T16:26:16;32.60;25.40
18147;DHT22;9199;48.832;9.182;2022-08-11T16:28:45;32.30;26.30
18147;DHT22;9199;48.832;9.182;2022-08-11T16:31:14;32.20;26.10
18147;DHT22;9199;48.832;9.182;2022-08-11T16:33:41;32.20;26.00
18147;DHT22;9199;48.832;9.182;2022-08-11T16:36:09;32.30;26.60
18147;DHT22;9199;48.832;9.182;2022-08-11T16:38:57;32.20;26.40
18147;DHT22;9199;48.832;9.182;2022-08-11T16:41:27;31.90;26.40
18147;DHT22;9199;48.832;9.182;2022-08-11T16:44:16;31.80;27.10
18147;DHT22;9199;48.832;9.182;2022-08-11T16:47:04;31.60;27.20
18147;DHT22;9199;48.832;9.182;2022-08-11T16:49:33;31.50;28.00
18147;DHT22;9199;48.832;9.182;2022-08-11T16:52:03;31.20;27.20
18147;DHT22;9199;48.832;9.182;2022-08-11T16:54:31;31.00;27.20
18147;DHT22;9199;48.832;9.182;2022-08-11T16:57:01;30.90;27.10
18147;DHT22;9199;48.832;9.182;2022-08-11T16:59:51;30.70;27.50
18147;DHT22;9199;48.832;9.182;2022-08-11T17:02:20;30.50;27.40
18147;DHT22;9199;48.832;9.182;2022-08-11T17:05:04;30.30;27.50
18147;DHT22;9199;48.832;9.182;2022-08-11T17:07:56;30.20;28.00
18147;DHT22;9199;48.832;9.182;2022-08-11T17:10:47;30.10;28.90
18147;DHT22;9199;48.832;9.182;2022-08-11T17:13:35;30.10;28.30
18147;DHT22;9199;48.832;9.182;2022-08-11T17:16:08;29.80;28.60
18147;DHT22;9199;48.832;9.182;2022-08-11T17:18:42;29.80;29.10
18147;DHT22;9199;48.832;9.182;2022-08-11T17:21:21;29.70;28.50
18147;DHT22;9199;48.832;9.182;2022-08-11T17:23:52;29.60;28.90